Kezdőlap
METAR-TAF:

METAR-TAF

Repülőterek :

Córdoba, Argentína

földrajzi szélesség: 31-19S, földrajzi hosszúság: 064-13W, magasság: 484 m

Jelenlegi meteorológiai megfigyelések

A jelentés 38 perccel ezelõtt készült, 00:00 UTC
Észak-északkeleti szél 7 kt
Hőmérséklet 6°C
Páratartalom 81%
Légköri nyomás 1021 hPa
Látótávolság 10 km, vagy több
felhőtlen 1500 m magasságban, és nincs gomolyfelhõ

METAR: SACO 200000Z 02007KT CAVOK 06/03 Q1021 NOSIG

Idő: 21:38 (00:38 UTC)

Előrejelzés

A jelentés 1 órával és 38 perccel ezelõtt készült, 23:00 UTC
Az előrejelzés 20-én 00 óra UTC és 20-én 24 óra UTC között érvényes
Északi szél 10 kt
Látótávolság 10 km, vagy több
felhőtlen 1500 m magasságban, és nincs gomolyfelhõ
20-én 13 óra UTC és 20-én 16 óra UTC között fokozatosan kialakuló
Észak-északkeleti szél 20 kt széllökések: 30 kt

TAF: SACO 192300Z 2000/2024 36010KT CAVOK TX20/2018Z TN04/2010Z BECMG 2013/2016 02020G30KT

Meteorológiai megfigyelések és előrejelzések több, mint 4000 repülőtéren (METAR és TAF jelentéseket).

A térképen piros és sárga pontok jelzik az elérhető meteorológiai állomásokat.

Mozgassa az egeret a pont fölött, hogy megjelenjen az állomás neve.

Azután kattintson az időjárási megfigyelések és előrejelzések megtekintéséhez.

A térkép megváltoztatása: kattintson a fekete keresztel jelölt zöld gombra ráközelítéshez, a vonallal jelölt zöld gombra távolításhoz, vagy a zöld nyilakra a szomszédos térképek eléréséhez.


METAR-TAF: